sensor_id;sensor_type;location;lat;lon;timestamp;temperature;humidity
23377;DHT22;14353;46.070;13.222;2023-08-20T00:01:29;33.70;49.00
23377;DHT22;14353;46.070;13.222;2023-08-20T00:03:56;33.70;49.00
23377;DHT22;14353;46.070;13.222;2023-08-20T00:06:22;33.70;49.00
23377;DHT22;14353;46.070;13.222;2023-08-20T00:08:48;33.70;49.00
23377;DHT22;14353;46.070;13.222;2023-08-20T00:11:15;33.70;49.00
23377;DHT22;14353;46.070;13.222;2023-08-20T00:13:41;33.70;49.00
23377;DHT22;14353;46.070;13.222;2023-08-20T00:16:08;33.70;49.00
23377;DHT22;14353;46.070;13.222;2023-08-20T00:18:34;33.70;49.10
23377;DHT22;14353;46.070;13.222;2023-08-20T00:21:00;33.70;49.10
23377;DHT22;14353;46.070;13.222;2023-08-20T00:23:26;33.70;49.10
23377;DHT22;14353;46.070;13.222;2023-08-20T00:25:52;33.70;49.20
23377;DHT22;14353;46.070;13.222;2023-08-20T00:28:20;33.70;49.20
23377;DHT22;14353;46.070;13.222;2023-08-20T00:30:46;33.60;49.10
23377;DHT22;14353;46.070;13.222;2023-08-20T00:33:11;33.70;49.20
23377;DHT22;14353;46.070;13.222;2023-08-20T00:35:37;33.60;49.10
23377;DHT22;14353;46.070;13.222;2023-08-20T00:38:03;33.60;49.10
23377;DHT22;14353;46.070;13.222;2023-08-20T00:40:30;33.60;49.20
23377;DHT22;14353;46.070;13.222;2023-08-20T00:42:56;33.60;49.20
23377;DHT22;14353;46.070;13.222;2023-08-20T00:45:22;33.60;49.20
23377;DHT22;14353;46.070;13.222;2023-08-20T00:47:49;33.60;49.20
23377;DHT22;14353;46.070;13.222;2023-08-20T00:50:15;33.60;49.20
23377;DHT22;14353;46.070;13.222;2023-08-20T00:52:41;33.60;49.20
23377;DHT22;14353;46.070;13.222;2023-08-20T00:55:09;33.60;49.20
23377;DHT22;14353;46.070;13.222;2023-08-20T00:57:37;33.60;49.20
23377;DHT22;14353;46.070;13.222;2023-08-20T01:00:03;33.60;49.20
23377;DHT22;14353;46.070;13.222;2023-08-20T01:02:39;33.60;49.20
23377;DHT22;14353;46.070;13.222;2023-08-20T01:05:08;33.60;49.30
23377;DHT22;14353;46.070;13.222;2023-08-20T01:10:08;33.50;49.30
23377;DHT22;14353;46.070;13.222;2023-08-20T01:12:36;33.50;49.20
23377;DHT22;14353;46.070;13.222;2023-08-20T01:15:04;33.50;49.30
23377;DHT22;14353;46.070;13.222;2023-08-20T01:17:30;33.50;49.30
23377;DHT22;14353;46.070;13.222;2023-08-20T01:19:56;33.50;49.30
23377;DHT22;14353;46.070;13.222;2023-08-20T01:30:30;33.50;49.40
23377;DHT22;14353;46.070;13.222;2023-08-20T01:32:58;33.50;49.40
23377;DHT22;14353;46.070;13.222;2023-08-20T01:35:24;33.50;49.40
23377;DHT22;14353;46.070;13.222;2023-08-20T01:37:52;33.50;49.40
23377;DHT22;14353;46.070;13.222;2023-08-20T01:40:17;33.50;49.40
23377;DHT22;14353;46.070;13.222;2023-08-20T01:42:43;33.50;49.40
23377;DHT22;14353;46.070;13.222;2023-08-20T01:45:09;33.50;49.40
23377;DHT22;14353;46.070;13.222;2023-08-20T01:47:36;33.50;49.40
23377;DHT22;14353;46.070;13.222;2023-08-20T01:50:02;33.50;49.40
23377;DHT22;14353;46.070;13.222;2023-08-20T01:52:28;33.50;49.50
23377;DHT22;14353;46.070;13.222;2023-08-20T01:54:57;33.50;49.40
23377;DHT22;14353;46.070;13.222;2023-08-20T01:57:23;33.40;49.40
23377;DHT22;14353;46.070;13.222;2023-08-20T01:59:49;33.50;49.50
23377;DHT22;14353;46.070;13.222;2023-08-20T02:02:15;33.40;49.50
23377;DHT22;14353;46.070;13.222;2023-08-20T02:04:40;33.40;49.50
23377;DHT22;14353;46.070;13.222;2023-08-20T02:07:06;33.40;49.50
23377;DHT22;14353;46.070;13.222;2023-08-20T02:09:32;33.40;49.50
23377;DHT22;14353;46.070;13.222;2023-08-20T02:11:57;33.40;49.50
23377;DHT22;14353;46.070;13.222;2023-08-20T02:14:23;33.40;49.50
23377;DHT22;14353;46.070;13.222;2023-08-20T02:16:49;33.40;49.50
23377;DHT22;14353;46.070;13.222;2023-08-20T02:19:14;33.40;49.50
23377;DHT22;14353;46.070;13.222;2023-08-20T02:21:40;33.40;49.60
23377;DHT22;14353;46.070;13.222;2023-08-20T02:24:06;33.40;49.60
23377;DHT22;14353;46.070;13.222;2023-08-20T02:26:32;33.40;49.60
23377;DHT22;14353;46.070;13.222;2023-08-20T02:28:58;33.40;49.60
23377;DHT22;14353;46.070;13.222;2023-08-20T02:31:24;33.40;49.60
23377;DHT22;14353;46.070;13.222;2023-08-20T02:33:49;33.40;49.60
23377;DHT22;14353;46.070;13.222;2023-08-20T02:36:15;33.40;49.60
23377;DHT22;14353;46.070;13.222;2023-08-20T02:38:41;33.40;49.60
23377;DHT22;14353;46.070;13.222;2023-08-20T02:41:06;33.40;49.60
23377;DHT22;14353;46.070;13.222;2023-08-20T02:43:32;33.40;49.60
23377;DHT22;14353;46.070;13.222;2023-08-20T02:45:58;33.40;49.60
23377;DHT22;14353;46.070;13.222;2023-08-20T02:48:24;33.40;49.60
23377;DHT22;14353;46.070;13.222;2023-08-20T02:50:56;33.40;49.60
23377;DHT22;14353;46.070;13.222;2023-08-20T02:53:22;33.30;49.60
23377;DHT22;14353;46.070;13.222;2023-08-20T02:55:48;33.30;49.60
23377;DHT22;14353;46.070;13.222;2023-08-20T02:58:14;33.30;49.60
23377;DHT22;14353;46.070;13.222;2023-08-20T03:00:40;33.30;49.60
23377;DHT22;14353;46.070;13.222;2023-08-20T03:03:06;33.30;49.60
23377;DHT22;14353;46.070;13.222;2023-08-20T03:05:34;33.30;49.60
23377;DHT22;14353;46.070;13.222;2023-08-20T03:08:00;33.30;49.60
23377;DHT22;14353;46.070;13.222;2023-08-20T03:10:27;33.30;49.70
23377;DHT22;14353;46.070;13.222;2023-08-20T03:12:53;33.30;49.70
23377;DHT22;14353;46.070;13.222;2023-08-20T03:15:19;33.30;49.70
23377;DHT22;14353;46.070;13.222;2023-08-20T03:17:44;33.30;49.70
23377;DHT22;14353;46.070;13.222;2023-08-20T03:20:10;33.30;49.70
23377;DHT22;14353;46.070;13.222;2023-08-20T03:22:37;33.30;49.70
23377;DHT22;14353;46.070;13.222;2023-08-20T03:25:03;33.30;49.70
23377;DHT22;14353;46.070;13.222;2023-08-20T03:27:29;33.30;49.70
23377;DHT22;14353;46.070;13.222;2023-08-20T03:29:55;33.20;49.70
23377;DHT22;14353;46.070;13.222;2023-08-20T03:32:20;33.20;49.70
23377;DHT22;14353;46.070;13.222;2023-08-20T03:34:46;33.20;49.70
23377;DHT22;14353;46.070;13.222;2023-08-20T03:37:12;33.20;49.70
23377;DHT22;14353;46.070;13.222;2023-08-20T03:39:38;33.20;49.70
23377;DHT22;14353;46.070;13.222;2023-08-20T03:42:04;33.20;49.70
23377;DHT22;14353;46.070;13.222;2023-08-20T03:44:31;33.20;49.70
23377;DHT22;14353;46.070;13.222;2023-08-20T03:46:57;33.20;49.70
23377;DHT22;14353;46.070;13.222;2023-08-20T03:49:23;33.20;49.80
23377;DHT22;14353;46.070;13.222;2023-08-20T03:51:48;33.20;49.80
23377;DHT22;14353;46.070;13.222;2023-08-20T03:54:14;33.20;49.80
23377;DHT22;14353;46.070;13.222;2023-08-20T03:56:40;33.20;49.80
23377;DHT22;14353;46.070;13.222;2023-08-20T03:59:05;33.20;49.80
23377;DHT22;14353;46.070;13.222;2023-08-20T04:01:31;33.20;49.80
23377;DHT22;14353;46.070;13.222;2023-08-20T04:03:57;33.20;49.80
23377;DHT22;14353;46.070;13.222;2023-08-20T04:06:23;33.20;49.80
23377;DHT22;14353;46.070;13.222;2023-08-20T04:08:49;33.20;49.80
23377;DHT22;14353;46.070;13.222;2023-08-20T04:11:15;33.20;49.80
23377;DHT22;14353;46.070;13.222;2023-08-20T04:13:41;33.20;49.80
23377;DHT22;14353;46.070;13.222;2023-08-20T04:16:09;33.20;49.80
23377;DHT22;14353;46.070;13.222;2023-08-20T04:18:35;33.20;49.80
23377;DHT22;14353;46.070;13.222;2023-08-20T04:21:00;33.20;49.80
23377;DHT22;14353;46.070;13.222;2023-08-20T04:23:26;33.20;49.80
23377;DHT22;14353;46.070;13.222;2023-08-20T04:25:52;33.20;49.80
23377;DHT22;14353;46.070;13.222;2023-08-20T04:28:18;33.20;49.90
23377;DHT22;14353;46.070;13.222;2023-08-20T04:30:44;33.20;49.80
23377;DHT22;14353;46.070;13.222;2023-08-20T04:33:10;33.20;49.90
23377;DHT22;14353;46.070;13.222;2023-08-20T04:35:36;33.20;49.80
23377;DHT22;14353;46.070;13.222;2023-08-20T04:38:02;33.20;49.80
23377;DHT22;14353;46.070;13.222;2023-08-20T04:40:28;33.20;49.80
23377;DHT22;14353;46.070;13.222;2023-08-20T04:42:56;33.20;49.80
23377;DHT22;14353;46.070;13.222;2023-08-20T04:45:22;33.20;49.90
23377;DHT22;14353;46.070;13.222;2023-08-20T04:47:48;33.20;49.90
23377;DHT22;14353;46.070;13.222;2023-08-20T04:50:14;33.20;49.80
23377;DHT22;14353;46.070;13.222;2023-08-20T04:52:39;33.20;49.80
23377;DHT22;14353;46.070;13.222;2023-08-20T04:55:06;33.20;49.80
23377;DHT22;14353;46.070;13.222;2023-08-20T04:57:34;33.10;49.80
23377;DHT22;14353;46.070;13.222;2023-08-20T05:00:00;33.10;49.80
23377;DHT22;14353;46.070;13.222;2023-08-20T05:02:26;33.10;49.80
23377;DHT22;14353;46.070;13.222;2023-08-20T05:04:52;33.20;49.80
23377;DHT22;14353;46.070;13.222;2023-08-20T05:07:17;33.10;49.80
23377;DHT22;14353;46.070;13.222;2023-08-20T05:09:43;33.10;49.80
23377;DHT22;14353;46.070;13.222;2023-08-20T05:12:09;33.20;49.80
23377;DHT22;14353;46.070;13.222;2023-08-20T05:14:35;33.10;49.80
23377;DHT22;14353;46.070;13.222;2023-08-20T05:17:01;33.20;49.80
23377;DHT22;14353;46.070;13.222;2023-08-20T05:19:26;33.10;49.80
23377;DHT22;14353;46.070;13.222;2023-08-20T05:21:52;33.10;49.70
23377;DHT22;14353;46.070;13.222;2023-08-20T05:24:22;33.10;49.80
23377;DHT22;14353;46.070;13.222;2023-08-20T05:29:31;33.10;49.70
23377;DHT22;14353;46.070;13.222;2023-08-20T05:31:57;33.10;49.70
23377;DHT22;14353;46.070;13.222;2023-08-20T05:34:22;33.20;49.80
23377;DHT22;14353;46.070;13.222;2023-08-20T05:36:48;33.20;49.80
23377;DHT22;14353;46.070;13.222;2023-08-20T05:39:14;33.20;49.80
23377;DHT22;14353;46.070;13.222;2023-08-20T05:41:39;33.20;49.80
23377;DHT22;14353;46.070;13.222;2023-08-20T05:44:05;33.10;49.70
23377;DHT22;14353;46.070;13.222;2023-08-20T05:46:31;33.20;49.80
23377;DHT22;14353;46.070;13.222;2023-08-20T05:48:56;33.10;49.70
23377;DHT22;14353;46.070;13.222;2023-08-20T05:51:22;33.20;49.80
23377;DHT22;14353;46.070;13.222;2023-08-20T05:53:48;33.10;49.70
23377;DHT22;14353;46.070;13.222;2023-08-20T05:56:13;33.20;49.80
23377;DHT22;14353;46.070;13.222;2023-08-20T05:58:39;33.20;49.80
23377;DHT22;14353;46.070;13.222;2023-08-20T06:01:05;33.10;49.70
23377;DHT22;14353;46.070;13.222;2023-08-20T06:03:30;33.20;50.40
23377;DHT22;14353;46.070;13.222;2023-08-20T06:05:59;33.10;49.60
23377;DHT22;14353;46.070;13.222;2023-08-20T06:08:24;33.20;49.70
23377;DHT22;14353;46.070;13.222;2023-08-20T06:10:51;33.20;49.70
23377;DHT22;14353;46.070;13.222;2023-08-20T06:13:17;33.20;49.70
23377;DHT22;14353;46.070;13.222;2023-08-20T06:15:43;33.10;49.60
23377;DHT22;14353;46.070;13.222;2023-08-20T06:18:08;33.20;49.70
23377;DHT22;14353;46.070;13.222;2023-08-20T06:20:34;33.20;49.70
23377;DHT22;14353;46.070;13.222;2023-08-20T06:23:00;33.20;49.60
23377;DHT22;14353;46.070;13.222;2023-08-20T06:25:25;33.20;49.70
23377;DHT22;14353;46.070;13.222;2023-08-20T06:27:51;33.20;49.70
23377;DHT22;14353;46.070;13.222;2023-08-20T06:30:17;33.20;49.60
23377;DHT22;14353;46.070;13.222;2023-08-20T06:32:44;33.20;49.60
23377;DHT22;14353;46.070;13.222;2023-08-20T06:35:10;33.20;49.60
23377;DHT22;14353;46.070;13.222;2023-08-20T06:37:38;33.20;49.60
23377;DHT22;14353;46.070;13.222;2023-08-20T06:40:04;33.20;49.60
23377;DHT22;14353;46.070;13.222;2023-08-20T06:42:30;33.20;49.60
23377;DHT22;14353;46.070;13.222;2023-08-20T06:44:56;33.20;49.60
23377;DHT22;14353;46.070;13.222;2023-08-20T06:47:21;33.20;49.60
23377;DHT22;14353;46.070;13.222;2023-08-20T06:49:47;33.20;49.60
23377;DHT22;14353;46.070;13.222;2023-08-20T06:52:13;33.20;49.50
23377;DHT22;14353;46.070;13.222;2023-08-20T06:54:38;33.20;49.50
23377;DHT22;14353;46.070;13.222;2023-08-20T06:57:04;33.20;49.50
23377;DHT22;14353;46.070;13.222;2023-08-20T06:59:30;33.20;49.50
23377;DHT22;14353;46.070;13.222;2023-08-20T07:01:56;33.20;49.50
23377;DHT22;14353;46.070;13.222;2023-08-20T07:04:22;33.20;49.40
23377;DHT22;14353;46.070;13.222;2023-08-20T07:06:47;33.20;49.40
23377;DHT22;14353;46.070;13.222;2023-08-20T07:09:13;33.20;49.40
23377;DHT22;14353;46.070;13.222;2023-08-20T07:11:39;33.20;49.40
23377;DHT22;14353;46.070;13.222;2023-08-20T07:14:04;33.20;49.40
23377;DHT22;14353;46.070;13.222;2023-08-20T07:16:31;33.20;49.40
23377;DHT22;14353;46.070;13.222;2023-08-20T07:18:57;33.30;49.40
23377;DHT22;14353;46.070;13.222;2023-08-20T07:21:22;33.30;49.40
23377;DHT22;14353;46.070;13.222;2023-08-20T07:23:48;33.30;49.30
23377;DHT22;14353;46.070;13.222;2023-08-20T07:26:14;33.30;49.40
23377;DHT22;14353;46.070;13.222;2023-08-20T07:28:41;33.30;49.30
23377;DHT22;14353;46.070;13.222;2023-08-20T07:31:23;33.30;49.30
23377;DHT22;14353;46.070;13.222;2023-08-20T07:33:49;33.30;49.20
23377;DHT22;14353;46.070;13.222;2023-08-20T07:36:16;33.30;49.20
23377;DHT22;14353;46.070;13.222;2023-08-20T07:38:42;33.30;49.20
23377;DHT22;14353;46.070;13.222;2023-08-20T07:41:09;33.30;49.20
23377;DHT22;14353;46.070;13.222;2023-08-20T07:43:35;33.40;49.20
23377;DHT22;14353;46.070;13.222;2023-08-20T07:46:01;33.30;49.10
23377;DHT22;14353;46.070;13.222;2023-08-20T07:48:27;33.30;49.10
23377;DHT22;14353;46.070;13.222;2023-08-20T07:50:52;33.30;49.10
23377;DHT22;14353;46.070;13.222;2023-08-20T07:53:18;33.40;49.10
23377;DHT22;14353;46.070;13.222;2023-08-20T07:55:44;33.40;49.10
23377;DHT22;14353;46.070;13.222;2023-08-20T07:58:10;33.40;49.00
23377;DHT22;14353;46.070;13.222;2023-08-20T08:00:36;33.40;49.00
23377;DHT22;14353;46.070;13.222;2023-08-20T08:03:01;33.40;49.00
23377;DHT22;14353;46.070;13.222;2023-08-20T08:05:28;33.40;48.90
23377;DHT22;14353;46.070;13.222;2023-08-20T08:07:54;33.40;48.90
23377;DHT22;14353;46.070;13.222;2023-08-20T08:10:19;33.40;48.90
23377;DHT22;14353;46.070;13.222;2023-08-20T08:12:45;33.50;48.90
23377;DHT22;14353;46.070;13.222;2023-08-20T08:15:11;33.50;48.90
23377;DHT22;14353;46.070;13.222;2023-08-20T08:17:37;33.50;48.90
23377;DHT22;14353;46.070;13.222;2023-08-20T08:20:03;33.50;48.90
23377;DHT22;14353;46.070;13.222;2023-08-20T08:22:29;33.50;48.80
23377;DHT22;14353;46.070;13.222;2023-08-20T08:24:55;33.50;48.80
23377;DHT22;14353;46.070;13.222;2023-08-20T08:27:20;33.50;48.80
23377;DHT22;14353;46.070;13.222;2023-08-20T08:29:46;33.50;48.80
23377;DHT22;14353;46.070;13.222;2023-08-20T08:32:12;33.50;48.70
23377;DHT22;14353;46.070;13.222;2023-08-20T08:34:37;33.50;48.80
23377;DHT22;14353;46.070;13.222;2023-08-20T08:37:03;33.50;49.40
23377;DHT22;14353;46.070;13.222;2023-08-20T08:39:29;33.50;48.70
23377;DHT22;14353;46.070;13.222;2023-08-20T08:42:03;33.50;48.70
23377;DHT22;14353;46.070;13.222;2023-08-20T08:44:31;33.50;48.70
23377;DHT22;14353;46.070;13.222;2023-08-20T08:47:04;33.50;48.70
23377;DHT22;14353;46.070;13.222;2023-08-20T08:49:33;33.60;48.70
23377;DHT22;14353;46.070;13.222;2023-08-20T08:51:59;33.60;48.70
23377;DHT22;14353;46.070;13.222;2023-08-20T08:54:26;33.60;48.70
23377;DHT22;14353;46.070;13.222;2023-08-20T08:56:52;33.60;48.60
23377;DHT22;14353;46.070;13.222;2023-08-20T08:59:19;33.60;48.70
23377;DHT22;14353;46.070;13.222;2023-08-20T09:01:44;33.60;48.60
23377;DHT22;14353;46.070;13.222;2023-08-20T09:04:10;33.60;48.60
23377;DHT22;14353;46.070;13.222;2023-08-20T09:06:52;33.60;48.60
23377;DHT22;14353;46.070;13.222;2023-08-20T09:09:20;33.60;48.50
23377;DHT22;14353;46.070;13.222;2023-08-20T09:11:48;33.60;48.50
23377;DHT22;14353;46.070;13.222;2023-08-20T09:14:22;33.60;48.50
23377;DHT22;14353;46.070;13.222;2023-08-20T09:17:00;33.60;48.50
23377;DHT22;14353;46.070;13.222;2023-08-20T09:19:36;33.60;48.50
23377;DHT22;14353;46.070;13.222;2023-08-20T09:22:04;33.70;48.50
23377;DHT22;14353;46.070;13.222;2023-08-20T09:24:49;33.70;48.50
23377;DHT22;14353;46.070;13.222;2023-08-20T09:27:17;33.70;48.50
23377;DHT22;14353;46.070;13.222;2023-08-20T09:29:51;33.70;48.50
23377;DHT22;14353;46.070;13.222;2023-08-20T09:32:19;33.70;48.50
23377;DHT22;14353;46.070;13.222;2023-08-20T09:34:45;33.70;48.40
23377;DHT22;14353;46.070;13.222;2023-08-20T09:37:13;33.70;48.50
23377;DHT22;14353;46.070;13.222;2023-08-20T09:39:39;33.70;48.40
23377;DHT22;14353;46.070;13.222;2023-08-20T09:42:05;33.70;48.40
23377;DHT22;14353;46.070;13.222;2023-08-20T09:44:43;33.70;48.40
23377;DHT22;14353;46.070;13.222;2023-08-20T09:47:13;33.70;48.40
23377;DHT22;14353;46.070;13.222;2023-08-20T09:49:47;33.70;48.30
23377;DHT22;14353;46.070;13.222;2023-08-20T09:52:18;33.70;48.30
23377;DHT22;14353;46.070;13.222;2023-08-20T09:55:16;33.70;48.30
23377;DHT22;14353;46.070;13.222;2023-08-20T09:57:42;33.70;48.30
23377;DHT22;14353;46.070;13.222;2023-08-20T10:00:09;33.70;48.20
23377;DHT22;14353;46.070;13.222;2023-08-20T10:02:40;33.80;48.30
23377;DHT22;14353;46.070;13.222;2023-08-20T10:05:06;33.80;48.90
23377;DHT22;14353;46.070;13.222;2023-08-20T10:07:33;33.80;48.20
23377;DHT22;14353;46.070;13.222;2023-08-20T10:10:02;33.80;48.20
23377;DHT22;14353;46.070;13.222;2023-08-20T10:12:28;33.80;48.20
23377;DHT22;14353;46.070;13.222;2023-08-20T10:14:59;33.80;48.20
23377;DHT22;14353;46.070;13.222;2023-08-20T10:17:25;33.80;48.10
23377;DHT22;14353;46.070;13.222;2023-08-20T10:19:57;33.80;48.20
23377;DHT22;14353;46.070;13.222;2023-08-20T10:22:25;33.80;48.10
23377;DHT22;14353;46.070;13.222;2023-08-20T10:24:57;33.80;48.10
23377;DHT22;14353;46.070;13.222;2023-08-20T10:27:27;33.80;48.10
23377;DHT22;14353;46.070;13.222;2023-08-20T10:29:56;33.90;48.10
23377;DHT22;14353;46.070;13.222;2023-08-20T10:32:48;33.90;48.10
23377;DHT22;14353;46.070;13.222;2023-08-20T10:38:06;33.90;48.00
23377;DHT22;14353;46.070;13.222;2023-08-20T10:43:36;33.90;48.00
23377;DHT22;14353;46.070;13.222;2023-08-20T10:46:19;33.90;47.90
23377;DHT22;14353;46.070;13.222;2023-08-20T10:48:53;33.90;47.90
23377;DHT22;14353;46.070;13.222;2023-08-20T10:51:28;33.90;47.90
23377;DHT22;14353;46.070;13.222;2023-08-20T10:56:41;34.00;47.80
23377;DHT22;14353;46.070;13.222;2023-08-20T10:59:08;34.00;47.80
23377;DHT22;14353;46.070;13.222;2023-08-20T11:01:34;34.00;47.80
23377;DHT22;14353;46.070;13.222;2023-08-20T11:04:00;34.00;47.70
23377;DHT22;14353;46.070;13.222;2023-08-20T11:06:33;34.00;47.70
23377;DHT22;14353;46.070;13.222;2023-08-20T11:08:59;34.10;47.70
23377;DHT22;14353;46.070;13.222;2023-08-20T11:11:25;34.10;47.70
23377;DHT22;14353;46.070;13.222;2023-08-20T11:13:51;34.10;47.70
23377;DHT22;14353;46.070;13.222;2023-08-20T11:16:17;34.10;47.60
23377;DHT22;14353;46.070;13.222;2023-08-20T11:18:43;34.10;47.60
23377;DHT22;14353;46.070;13.222;2023-08-20T11:21:09;34.20;47.60
23377;DHT22;14353;46.070;13.222;2023-08-20T11:23:35;34.20;47.60
23377;DHT22;14353;46.070;13.222;2023-08-20T11:26:01;34.20;47.50
23377;DHT22;14353;46.070;13.222;2023-08-20T11:28:28;34.20;47.50
23377;DHT22;14353;46.070;13.222;2023-08-20T11:30:54;34.20;47.50
23377;DHT22;14353;46.070;13.222;2023-08-20T11:33:22;34.20;47.50
23377;DHT22;14353;46.070;13.222;2023-08-20T11:35:48;34.20;47.40
23377;DHT22;14353;46.070;13.222;2023-08-20T11:38:14;34.20;47.40
23377;DHT22;14353;46.070;13.222;2023-08-20T11:40:40;34.30;47.40
23377;DHT22;14353;46.070;13.222;2023-08-20T11:43:06;34.30;47.30
23377;DHT22;14353;46.070;13.222;2023-08-20T11:45:33;34.30;47.30
23377;DHT22;14353;46.070;13.222;2023-08-20T11:48:09;34.30;47.20
23377;DHT22;14353;46.070;13.222;2023-08-20T11:50:35;34.40;47.30
23377;DHT22;14353;46.070;13.222;2023-08-20T11:53:03;34.40;47.20
23377;DHT22;14353;46.070;13.222;2023-08-20T11:55:30;34.40;47.20
23377;DHT22;14353;46.070;13.222;2023-08-20T11:57:55;34.40;47.20
23377;DHT22;14353;46.070;13.222;2023-08-20T12:00:29;34.40;47.10
23377;DHT22;14353;46.070;13.222;2023-08-20T12:02:55;34.40;47.00
23377;DHT22;14353;46.070;13.222;2023-08-20T12:05:26;34.50;47.10
23377;DHT22;14353;46.070;13.222;2023-08-20T12:08:03;34.50;47.00
23377;DHT22;14353;46.070;13.222;2023-08-20T12:10:30;34.50;47.00
23377;DHT22;14353;46.070;13.222;2023-08-20T12:12:57;34.50;46.90
23377;DHT22;14353;46.070;13.222;2023-08-20T12:15:24;34.50;46.90
23377;DHT22;14353;46.070;13.222;2023-08-20T12:18:04;34.60;46.90
23377;DHT22;14353;46.070;13.222;2023-08-20T12:20:32;34.60;46.90
23377;DHT22;14353;46.070;13.222;2023-08-20T12:23:00;34.60;46.80
23377;DHT22;14353;46.070;13.222;2023-08-20T12:25:27;34.60;46.80
23377;DHT22;14353;46.070;13.222;2023-08-20T12:27:53;34.70;46.80
23377;DHT22;14353;46.070;13.222;2023-08-20T12:30:18;34.70;46.80
23377;DHT22;14353;46.070;13.222;2023-08-20T12:32:44;34.70;46.70
23377;DHT22;14353;46.070;13.222;2023-08-20T12:35:10;34.70;46.60
23377;DHT22;14353;46.070;13.222;2023-08-20T12:37:35;34.70;46.60
23377;DHT22;14353;46.070;13.222;2023-08-20T12:40:02;34.80;46.70
23377;DHT22;14353;46.070;13.222;2023-08-20T12:42:29;34.80;46.60
23377;DHT22;14353;46.070;13.222;2023-08-20T12:44:55;34.80;46.50
23377;DHT22;14353;46.070;13.222;2023-08-20T12:47:20;34.90;46.60
23377;DHT22;14353;46.070;13.222;2023-08-20T12:49:46;34.90;46.50
23377;DHT22;14353;46.070;13.222;2023-08-20T12:52:12;34.90;46.40
23377;DHT22;14353;46.070;13.222;2023-08-20T12:54:37;34.90;46.30
23377;DHT22;14353;46.070;13.222;2023-08-20T12:57:03;34.90;46.30
23377;DHT22;14353;46.070;13.222;2023-08-20T12:59:29;34.90;46.30
23377;DHT22;14353;46.070;13.222;2023-08-20T13:01:55;35.00;46.40
23377;DHT22;14353;46.070;13.222;2023-08-20T13:04:20;35.00;46.40
23377;DHT22;14353;46.070;13.222;2023-08-20T13:06:46;35.00;46.30
23377;DHT22;14353;46.070;13.222;2023-08-20T13:09:12;35.00;46.30
23377;DHT22;14353;46.070;13.222;2023-08-20T13:11:42;35.00;46.20
23377;DHT22;14353;46.070;13.222;2023-08-20T13:14:09;35.00;46.10
23377;DHT22;14353;46.070;13.222;2023-08-20T13:16:35;35.10;46.20
23377;DHT22;14353;46.070;13.222;2023-08-20T13:19:01;35.10;46.20
23377;DHT22;14353;46.070;13.222;2023-08-20T13:21:27;35.20;46.20
23377;DHT22;14353;46.070;13.222;2023-08-20T13:23:53;35.20;46.10
23377;DHT22;14353;46.070;13.222;2023-08-20T13:26:19;35.20;46.10
23377;DHT22;14353;46.070;13.222;2023-08-20T13:28:47;35.20;46.10
23377;DHT22;14353;46.070;13.222;2023-08-20T13:31:13;35.20;46.00
23377;DHT22;14353;46.070;13.222;2023-08-20T13:33:39;35.20;46.00
23377;DHT22;14353;46.070;13.222;2023-08-20T13:36:05;35.20;45.90
23377;DHT22;14353;46.070;13.222;2023-08-20T13:38:32;35.30;46.00
23377;DHT22;14353;46.070;13.222;2023-08-20T13:40:58;35.30;45.90
23377;DHT22;14353;46.070;13.222;2023-08-20T13:43:24;35.30;45.90
23377;DHT22;14353;46.070;13.222;2023-08-20T13:45:50;35.30;45.90
23377;DHT22;14353;46.070;13.222;2023-08-20T13:48:15;35.40;45.80
23377;DHT22;14353;46.070;13.222;2023-08-20T13:50:41;35.40;45.80
23377;DHT22;14353;46.070;13.222;2023-08-20T13:53:07;35.40;45.80
23377;DHT22;14353;46.070;13.222;2023-08-20T13:55:34;35.40;45.70
23377;DHT22;14353;46.070;13.222;2023-08-20T13:57:59;35.40;45.70
23377;DHT22;14353;46.070;13.222;2023-08-20T14:00:25;35.50;45.80
23377;DHT22;14353;46.070;13.222;2023-08-20T14:02:51;35.40;45.70
23377;DHT22;14353;46.070;13.222;2023-08-20T14:05:16;35.50;45.70
23377;DHT22;14353;46.070;13.222;2023-08-20T14:07:43;35.50;45.60
23377;DHT22;14353;46.070;13.222;2023-08-20T14:10:09;35.50;45.60
23377;DHT22;14353;46.070;13.222;2023-08-20T14:12:35;35.60;45.70
23377;DHT22;14353;46.070;13.222;2023-08-20T14:15:01;35.60;45.60
23377;DHT22;14353;46.070;13.222;2023-08-20T14:17:27;35.60;45.60
23377;DHT22;14353;46.070;13.222;2023-08-20T14:19:53;35.60;45.60
23377;DHT22;14353;46.070;13.222;2023-08-20T14:22:19;35.60;45.50
23377;DHT22;14353;46.070;13.222;2023-08-20T14:24:44;35.70;45.50
23377;DHT22;14353;46.070;13.222;2023-08-20T14:27:10;35.70;45.50
23377;DHT22;14353;46.070;13.222;2023-08-20T14:29:36;35.70;45.40
23377;DHT22;14353;46.070;13.222;2023-08-20T14:32:02;35.70;45.40
23377;DHT22;14353;46.070;13.222;2023-08-20T14:34:28;35.70;45.40
23377;DHT22;14353;46.070;13.222;2023-08-20T14:36:53;35.70;45.30
23377;DHT22;14353;46.070;13.222;2023-08-20T14:39:20;35.70;45.30
23377;DHT22;14353;46.070;13.222;2023-08-20T14:41:45;35.80;45.40
23377;DHT22;14353;46.070;13.222;2023-08-20T14:44:11;35.80;45.30
23377;DHT22;14353;46.070;13.222;2023-08-20T14:46:37;35.80;45.30
23377;DHT22;14353;46.070;13.222;2023-08-20T14:49:03;35.80;45.30
23377;DHT22;14353;46.070;13.222;2023-08-20T14:51:29;35.80;45.30
23377;DHT22;14353;46.070;13.222;2023-08-20T14:53:55;35.80;45.30
23377;DHT22;14353;46.070;13.222;2023-08-20T14:56:20;35.80;45.30
23377;DHT22;14353;46.070;13.222;2023-08-20T14:58:46;35.90;45.30
23377;DHT22;14353;46.070;13.222;2023-08-20T15:01:12;35.90;45.30
23377;DHT22;14353;46.070;13.222;2023-08-20T15:03:38;35.90;45.30
23377;DHT22;14353;46.070;13.222;2023-08-20T15:06:04;35.90;45.20
23377;DHT22;14353;46.070;13.222;2023-08-20T15:08:30;35.90;45.20
23377;DHT22;14353;46.070;13.222;2023-08-20T15:10:57;36.00;45.20
23377;DHT22;14353;46.070;13.222;2023-08-20T15:13:24;36.00;45.10
23377;DHT22;14353;46.070;13.222;2023-08-20T15:15:53;36.00;45.20
23377;DHT22;14353;46.070;13.222;2023-08-20T15:18:19;36.00;45.10
23377;DHT22;14353;46.070;13.222;2023-08-20T15:20:45;36.00;45.10
23377;DHT22;14353;46.070;13.222;2023-08-20T15:23:11;36.00;45.10
23377;DHT22;14353;46.070;13.222;2023-08-20T15:25:37;36.10;45.10
23377;DHT22;14353;46.070;13.222;2023-08-20T15:28:02;36.10;45.10
23377;DHT22;14353;46.070;13.222;2023-08-20T15:30:29;36.10;45.10
23377;DHT22;14353;46.070;13.222;2023-08-20T15:32:55;36.10;45.20
23377;DHT22;14353;46.070;13.222;2023-08-20T15:35:20;36.10;45.70